createdAt,value
2018-10-02T00:00:07.017Z,7.20
2018-10-02T00:02:36.278Z,7.20
2018-10-02T00:05:05.588Z,7.10
2018-10-02T00:07:35.746Z,7.10
2018-10-02T00:10:05.052Z,7.10
2018-10-02T00:13:40.735Z,7.10
2018-10-02T00:16:10.002Z,7.20
2018-10-02T00:18:39.179Z,7.30
2018-10-02T00:21:08.548Z,7.30
2018-10-02T00:23:38.697Z,7.30
2018-10-02T00:26:08.355Z,7.30
2018-10-02T00:28:37.641Z,7.40
2018-10-02T00:31:07.707Z,7.40
2018-10-02T00:33:36.889Z,7.40
2018-10-02T00:36:08.332Z,7.50
2018-10-02T00:38:38.189Z,7.60
2018-10-02T00:41:07.463Z,7.60
2018-10-02T00:43:36.679Z,7.60
2018-10-02T00:46:05.893Z,7.50
2018-10-02T00:48:35.159Z,7.50
2018-10-02T00:51:07.546Z,7.40
2018-10-02T00:53:36.624Z,7.30
2018-10-02T00:56:05.886Z,7.10
2018-10-02T00:58:35.137Z,7.00
2018-10-02T01:01:05.041Z,6.90
2018-10-02T01:03:34.908Z,6.90
2018-10-02T01:06:04.871Z,6.80
2018-10-02T01:08:34.088Z,6.80
2018-10-02T01:11:03.245Z,6.80
2018-10-02T01:13:32.343Z,6.90
2018-10-02T01:16:01.467Z,7.00
2018-10-02T01:18:30.582Z,7.10
2018-10-02T01:21:00.382Z,7.00
2018-10-02T01:23:30.330Z,7.00
2018-10-02T01:25:59.516Z,6.90
2018-10-02T01:28:28.699Z,6.90
2018-10-02T01:30:57.860Z,7.00
2018-10-02T01:33:27.185Z,7.00
2018-10-02T01:35:56.365Z,7.00
2018-10-02T01:38:25.620Z,7.10
2018-10-02T01:40:54.802Z,7.10
2018-10-02T01:43:24.606Z,7.10
2018-10-02T01:45:53.948Z,7.10
2018-10-02T01:48:23.204Z,7.00
2018-10-02T01:50:52.451Z,6.90
2018-10-02T01:53:21.728Z,6.80
2018-10-02T01:55:50.978Z,6.70
2018-10-02T01:58:20.108Z,6.60
2018-10-02T02:00:49.327Z,6.60
2018-10-02T02:03:18.463Z,6.50
2018-10-02T02:05:47.691Z,6.50
2018-10-02T02:08:16.826Z,6.50
2018-10-02T02:10:46.103Z,6.50
2018-10-02T02:13:15.359Z,6.40
2018-10-02T02:15:44.641Z,6.40
2018-10-02T02:18:13.799Z,6.40
2018-10-02T02:20:43.174Z,6.40
2018-10-02T02:23:12.390Z,6.40
2018-10-02T02:25:42.202Z,6.40
2018-10-02T02:28:11.750Z,6.50
2018-10-02T02:30:40.833Z,6.60
2018-10-02T02:33:09.915Z,6.60
2018-10-02T02:35:39.076Z,6.60
2018-10-02T02:38:08.111Z,6.60
2018-10-02T02:40:37.342Z,6.50
2018-10-02T02:43:06.422Z,6.50
2018-10-02T02:45:35.897Z,6.50
2018-10-02T02:48:15.736Z,6.50
2018-10-02T02:52:03.318Z,6.40
2018-10-02T02:54:32.364Z,6.40
2018-10-02T02:57:01.567Z,6.40
2018-10-02T02:59:30.718Z,6.40
2018-10-02T03:01:59.810Z,6.40
2018-10-02T03:04:28.939Z,6.40
2018-10-02T03:06:59.057Z,6.40
2018-10-02T03:09:40.403Z,6.40
2018-10-02T03:12:10.671Z,6.40
2018-10-02T03:14:39.788Z,6.40
2018-10-02T03:17:10.067Z,6.40
2018-10-02T03:19:39.149Z,6.50
2018-10-02T03:22:09.271Z,6.50
2018-10-02T03:24:38.525Z,6.40
2018-10-02T03:27:07.619Z,6.40
2018-10-02T03:29:36.839Z,6.40
2018-10-02T03:32:06.760Z,6.40
2018-10-02T03:34:35.944Z,6.40
2018-10-02T03:37:05.324Z,6.40
2018-10-02T03:39:35.194Z,6.40
2018-10-02T03:42:04.311Z,6.40
2018-10-02T03:44:33.569Z,6.50
2018-10-02T03:47:02.754Z,6.50
2018-10-02T03:49:32.738Z,6.50
2018-10-02T03:52:01.951Z,6.50
2018-10-02T03:54:31.484Z,6.60
2018-10-02T03:57:00.828Z,6.50
2018-10-02T03:59:29.981Z,6.50
2018-10-02T04:01:59.177Z,6.50
2018-10-02T04:04:29.186Z,6.50
2018-10-02T04:06:58.281Z,6.50
2018-10-02T04:09:27.455Z,6.60
2018-10-02T04:11:56.678Z,6.60
2018-10-02T04:14:25.661Z,6.60
2018-10-02T04:16:54.953Z,6.60
2018-10-02T04:19:24.300Z,6.60
2018-10-02T04:21:53.546Z,6.60
2018-10-02T04:24:22.628Z,6.60
2018-10-02T04:26:52.049Z,6.60
2018-10-02T04:29:22.286Z,6.60
2018-10-02T04:31:51.555Z,6.60
2018-10-02T04:34:20.788Z,6.60
2018-10-02T04:36:50.015Z,6.60
2018-10-02T04:39:19.842Z,6.60
2018-10-02T04:41:49.162Z,6.60
2018-10-02T04:44:18.425Z,6.70
2018-10-02T04:46:47.791Z,6.70
2018-10-02T04:49:20.029Z,6.70
2018-10-02T04:51:51.723Z,6.70
2018-10-02T04:54:22.071Z,6.80
2018-10-02T04:56:51.347Z,6.70
2018-10-02T04:59:20.471Z,6.80
2018-10-02T05:01:49.578Z,6.80
2018-10-02T05:04:18.669Z,6.80
2018-10-02T05:06:47.871Z,6.80
2018-10-02T05:09:17.014Z,6.80
2018-10-02T05:11:46.218Z,6.80
2018-10-02T05:14:15.648Z,6.90
2018-10-02T05:16:44.727Z,6.90
2018-10-02T05:19:13.927Z,6.90
2018-10-02T05:21:43.060Z,6.90
2018-10-02T05:24:12.510Z,6.90
2018-10-02T05:26:41.698Z,7.00
2018-10-02T05:29:11.237Z,7.00
2018-10-02T05:31:40.520Z,7.10
2018-10-02T05:34:09.744Z,7.10
2018-10-02T05:36:39.155Z,7.10
2018-10-02T05:39:09.406Z,7.10
2018-10-02T05:41:38.768Z,7.10
2018-10-02T05:44:08.167Z,7.10
2018-10-02T05:46:37.252Z,7.20
2018-10-02T05:49:06.427Z,7.20
2018-10-02T05:51:36.112Z,7.30
2018-10-02T05:54:05.232Z,7.30
2018-10-02T05:56:34.446Z,7.30
2018-10-02T05:59:03.663Z,7.30
2018-10-02T06:01:32.789Z,7.30
2018-10-02T06:04:01.935Z,7.30
2018-10-02T06:06:31.077Z,7.30
2018-10-02T06:09:00.590Z,7.40
2018-10-02T06:11:32.666Z,7.40
2018-10-02T06:14:01.767Z,7.40
2018-10-02T06:16:31.772Z,7.40
2018-10-02T06:19:01.028Z,7.40
2018-10-02T06:21:30.328Z,7.40
2018-10-02T06:23:59.635Z,7.40
2018-10-02T06:26:33.342Z,7.40
2018-10-02T06:29:02.492Z,7.50
2018-10-02T06:31:31.783Z,7.40
2018-10-02T06:34:01.031Z,7.50
2018-10-02T06:36:30.163Z,7.40
2018-10-02T06:38:59.296Z,7.40
2018-10-02T06:41:28.812Z,7.40
2018-10-02T06:43:58.076Z,7.40
2018-10-02T06:46:27.537Z,7.40
2018-10-02T06:48:56.856Z,7.40
2018-10-02T06:51:26.243Z,7.40
2018-10-02T06:53:55.834Z,7.40
2018-10-02T06:56:29.361Z,7.50
2018-10-02T06:58:58.716Z,7.50
2018-10-02T07:01:28.732Z,7.60
2018-10-02T07:03:58.080Z,7.70
2018-10-02T07:06:27.320Z,7.70
2018-10-02T07:08:56.576Z,7.70
2018-10-02T07:11:25.846Z,7.60
2018-10-02T07:13:55.112Z,7.70
2018-10-02T07:16:24.336Z,7.80
2018-10-02T07:18:54.308Z,7.90
2018-10-02T07:21:23.571Z,7.90
2018-10-02T07:23:52.912Z,7.90
2018-10-02T07:26:22.136Z,7.80
2018-10-02T07:28:51.281Z,7.80
2018-10-02T07:31:20.390Z,7.80
2018-10-02T07:33:50.374Z,7.80
2018-10-02T07:36:19.841Z,7.90
2018-10-02T07:38:49.097Z,7.90
2018-10-02T07:41:18.298Z,8.00
2018-10-02T07:43:47.521Z,8.10
2018-10-02T07:46:16.516Z,8.10
2018-10-02T07:48:46.483Z,8.20
2018-10-02T07:51:16.131Z,8.30
2018-10-02T07:53:45.453Z,8.40
2018-10-02T07:56:14.621Z,8.40
2018-10-02T07:58:43.843Z,8.50
2018-10-02T08:01:13.066Z,8.50
2018-10-02T08:03:42.259Z,8.50
2018-10-02T08:06:16.482Z,8.50
2018-10-02T08:08:45.644Z,8.40
2018-10-02T08:11:14.875Z,8.30
2018-10-02T08:13:43.993Z,8.30
2018-10-02T08:16:13.378Z,8.20
2018-10-02T08:18:42.656Z,8.20
2018-10-02T08:21:11.843Z,8.20
2018-10-02T08:23:41.123Z,8.30
2018-10-02T08:26:10.395Z,8.30
2018-10-02T08:28:39.535Z,8.30
2018-10-02T08:31:08.744Z,8.30
2018-10-02T08:33:38.001Z,8.30
2018-10-02T08:36:07.645Z,8.30
2018-10-02T08:38:36.820Z,8.20
2018-10-02T08:41:06.122Z,8.20
2018-10-02T08:43:35.674Z,8.20
2018-10-02T08:46:04.905Z,8.20
2018-10-02T08:48:34.106Z,8.10
2018-10-02T08:51:04.209Z,8.00
2018-10-02T08:53:33.418Z,8.00
2018-10-02T08:56:03.015Z,7.90
2018-10-02T08:58:32.292Z,8.00
2018-10-02T09:01:01.654Z,8.00
2018-10-02T09:03:30.794Z,8.00
2018-10-02T09:05:59.975Z,8.10
2018-10-02T09:08:29.176Z,8.20
2018-10-02T09:10:58.342Z,8.20
2018-10-02T09:13:27.610Z,8.20
2018-10-02T09:15:57.025Z,8.20
2018-10-02T09:18:26.313Z,8.10
2018-10-02T09:20:55.836Z,8.20
2018-10-02T09:23:24.986Z,8.20
2018-10-02T09:25:54.330Z,8.20
2018-10-02T09:28:23.718Z,8.20
2018-10-02T09:30:58.213Z,8.20
2018-10-02T09:33:32.816Z,8.20
2018-10-02T09:36:07.361Z,8.20
2018-10-02T09:38:41.973Z,8.30
2018-10-02T09:41:16.396Z,8.40
2018-10-02T09:43:49.110Z,8.40
2018-10-02T09:46:19.791Z,8.40
2018-10-02T09:48:49.106Z,8.50
2018-10-02T09:51:18.777Z,8.50
2018-10-02T09:53:48.040Z,8.40
2018-10-02T09:56:18.148Z,8.40
2018-10-02T09:58:47.465Z,8.40
2018-10-02T10:01:22.051Z,8.40
2018-10-02T10:03:51.133Z,8.50
2018-10-02T10:06:20.354Z,8.50
2018-10-02T10:08:49.761Z,8.40
2018-10-02T10:11:19.112Z,8.40
2018-10-02T10:13:48.421Z,8.40
2018-10-02T10:16:17.620Z,8.50
2018-10-02T10:18:47.054Z,8.50
2018-10-02T10:21:16.362Z,8.50
2018-10-02T10:23:46.018Z,8.60
2018-10-02T10:26:15.409Z,8.60
2018-10-02T10:28:44.828Z,8.60
2018-10-02T10:31:14.734Z,8.70
2018-10-02T10:33:44.156Z,8.80
2018-10-02T10:36:14.594Z,8.80
2018-10-02T10:38:43.883Z,8.80
2018-10-02T10:41:13.168Z,8.80
2018-10-02T10:43:42.445Z,8.80
2018-10-02T10:46:11.776Z,8.90
2018-10-02T10:48:41.062Z,9.00
2018-10-02T10:51:10.379Z,9.00
2018-10-02T10:53:39.678Z,9.10
2018-10-02T10:56:08.922Z,9.10
2018-10-02T10:58:38.346Z,9.20
2018-10-02T11:01:09.078Z,9.20
2018-10-02T11:03:38.169Z,9.20
2018-10-02T11:06:07.727Z,9.20
2018-10-02T11:08:37.670Z,9.30
2018-10-02T11:11:06.868Z,9.30
2018-10-02T11:13:36.119Z,9.30
2018-10-02T11:16:05.484Z,9.40
2018-10-02T11:18:34.664Z,9.40
2018-10-02T11:21:04.045Z,9.30
2018-10-02T11:23:33.476Z,9.20
2018-10-02T11:26:02.588Z,9.30
2018-10-02T11:28:31.853Z,9.40
2018-10-02T11:31:01.195Z,9.40
2018-10-02T11:33:30.353Z,9.50
2018-10-02T11:36:00.896Z,9.50
2018-10-02T11:38:30.184Z,9.40
2018-10-02T11:40:59.749Z,9.50
2018-10-02T11:43:30.089Z,9.50
2018-10-02T11:45:59.295Z,9.50
2018-10-02T11:48:28.801Z,9.60
2018-10-02T11:50:58.324Z,9.50
2018-10-02T11:53:29.512Z,9.50
2018-10-02T11:55:58.733Z,9.50
2018-10-02T11:58:27.836Z,9.50
2018-10-02T12:00:57.826Z,9.40
2018-10-02T12:03:27.327Z,9.40
2018-10-02T12:05:56.422Z,9.40
2018-10-02T12:08:25.736Z,9.40
2018-10-02T12:10:55.753Z,9.30
2018-10-02T12:13:25.016Z,9.30
2018-10-02T12:15:54.182Z,9.40
2018-10-02T12:18:23.352Z,9.40
2018-10-02T12:20:52.697Z,9.40
2018-10-02T12:23:23.097Z,9.50
2018-10-02T12:25:52.303Z,9.50
2018-10-02T12:28:21.625Z,9.60
2018-10-02T12:30:50.777Z,9.60
2018-10-02T12:33:19.898Z,9.60
2018-10-02T12:35:49.087Z,9.80
2018-10-02T12:38:18.362Z,9.90
2018-10-02T12:40:48.421Z,9.90
2018-10-02T12:43:17.561Z,10.00
2018-10-02T12:45:46.779Z,10.00
2018-10-02T12:48:16.366Z,10.00
2018-10-02T12:50:45.509Z,10.20
2018-10-02T12:53:15.268Z,10.30
2018-10-02T12:55:45.067Z,10.30
2018-10-02T12:58:14.261Z,10.30
2018-10-02T13:00:43.411Z,10.30
2018-10-02T13:03:12.669Z,10.40
2018-10-02T13:05:41.956Z,10.40
2018-10-02T13:08:11.184Z,10.40
2018-10-02T13:10:40.352Z,10.40
2018-10-02T13:13:09.577Z,10.50
2018-10-02T13:15:38.787Z,10.50
2018-10-02T13:18:08.168Z,10.60
2018-10-02T13:20:37.203Z,10.70
2018-10-02T13:23:07.407Z,10.70
2018-10-02T13:25:36.857Z,10.70
2018-10-02T13:28:09.190Z,10.70
2018-10-02T13:30:38.353Z,10.80
2018-10-02T13:33:07.741Z,10.80
2018-10-02T13:35:37.060Z,10.80
2018-10-02T13:38:06.392Z,10.80
2018-10-02T13:40:36.393Z,10.90
2018-10-02T13:43:05.643Z,10.90
2018-10-02T13:45:34.788Z,10.90
2018-10-02T13:48:03.974Z,10.80
2018-10-02T13:50:33.220Z,10.80
2018-10-02T13:53:02.447Z,10.80
2018-10-02T13:55:31.708Z,10.80
2018-10-02T13:58:00.787Z,10.80
2018-10-02T14:00:29.929Z,10.90
2018-10-02T14:02:59.138Z,11.00
2018-10-02T14:05:28.329Z,11.00
2018-10-02T14:07:57.451Z,11.00
2018-10-02T14:10:26.739Z,11.00
2018-10-02T14:12:55.881Z,10.90
2018-10-02T14:15:25.186Z,10.90
2018-10-02T14:17:54.295Z,11.00
2018-10-02T14:20:23.521Z,10.90
2018-10-02T14:22:53.468Z,11.00
2018-10-02T14:25:22.636Z,10.90
2018-10-02T14:27:51.883Z,11.00
2018-10-02T14:30:21.224Z,11.00
2018-10-02T14:32:50.485Z,11.00
2018-10-02T14:35:19.540Z,11.10
2018-10-02T14:37:48.985Z,11.20
2018-10-02T14:40:18.381Z,11.20
2018-10-02T14:42:47.598Z,11.20
2018-10-02T14:45:17.901Z,11.30
2018-10-02T14:47:47.231Z,11.30
2018-10-02T14:50:16.348Z,11.30
2018-10-02T14:52:45.621Z,11.40
2018-10-02T14:55:15.216Z,11.40
2018-10-02T14:57:44.338Z,11.50
2018-10-02T15:00:14.237Z,11.50
2018-10-02T15:02:45.168Z,11.60
2018-10-02T15:05:14.339Z,11.60
2018-10-02T15:07:43.552Z,11.60
2018-10-02T15:10:12.851Z,11.70
2018-10-02T15:12:42.028Z,11.70
2018-10-02T15:15:11.534Z,11.70
2018-10-02T15:17:40.645Z,11.80
2018-10-02T15:20:09.786Z,11.90
2018-10-02T15:22:39.103Z,12.00
2018-10-02T15:25:08.738Z,12.00
2018-10-02T15:27:39.082Z,12.10
2018-10-02T15:30:08.615Z,12.20
2018-10-02T15:32:37.968Z,12.20
2018-10-02T15:35:07.442Z,12.20
2018-10-02T15:37:36.670Z,12.20
2018-10-02T15:40:05.836Z,12.30
2018-10-02T15:42:35.260Z,12.30
2018-10-02T15:45:04.700Z,12.20
2018-10-02T15:47:34.202Z,12.20
2018-10-02T15:50:03.507Z,12.20
2018-10-02T15:52:32.747Z,12.20
2018-10-02T15:55:02.689Z,12.20
2018-10-02T15:57:31.871Z,12.20
2018-10-02T16:00:01.019Z,12.20
2018-10-02T16:02:30.232Z,12.30
2018-10-02T16:05:00.032Z,12.30
2018-10-02T16:07:29.333Z,12.30
2018-10-02T16:09:58.585Z,12.30
2018-10-02T16:12:28.137Z,12.30
2018-10-02T16:14:57.461Z,12.30
2018-10-02T16:17:26.911Z,12.30
2018-10-02T16:19:56.596Z,12.30
2018-10-02T16:22:25.916Z,12.20
2018-10-02T16:24:56.876Z,12.20
2018-10-02T16:27:26.001Z,12.20
2018-10-02T16:29:55.110Z,12.10
2018-10-02T16:32:24.466Z,12.10
2018-10-02T16:34:53.747Z,12.10
2018-10-02T16:37:22.898Z,12.10
2018-10-02T16:39:52.262Z,12.00
2018-10-02T16:42:21.513Z,12.00
2018-10-02T16:44:50.732Z,12.00
2018-10-02T16:47:20.591Z,12.00
2018-10-02T16:49:49.817Z,12.00
2018-10-02T16:52:19.298Z,12.10
2018-10-02T16:54:48.540Z,12.00
2018-10-02T16:57:17.980Z,11.90
2018-10-02T16:59:47.022Z,11.90
2018-10-02T17:02:17.049Z,11.80
2018-10-02T17:04:46.194Z,11.80
2018-10-02T17:07:15.416Z,11.70
2018-10-02T17:09:44.563Z,11.60
2018-10-02T17:12:15.011Z,11.50
2018-10-02T17:14:44.359Z,11.60
2018-10-02T17:17:13.780Z,11.60
2018-10-02T17:19:42.864Z,11.70
2018-10-02T17:22:12.088Z,11.70
2018-10-02T17:24:41.279Z,11.70
2018-10-02T17:27:10.672Z,11.60
2018-10-02T17:29:40.608Z,11.50
2018-10-02T17:32:09.917Z,11.60
2018-10-02T17:34:39.156Z,11.70
2018-10-02T17:37:08.295Z,11.80
2018-10-02T17:39:37.566Z,11.80
2018-10-02T17:42:06.961Z,11.90
2018-10-02T17:44:36.241Z,11.90
2018-10-02T17:47:05.394Z,11.90
2018-10-02T17:49:34.665Z,11.90
2018-10-02T17:52:03.861Z,11.90
2018-10-02T17:54:33.023Z,11.90
2018-10-02T17:57:03.356Z,11.90
2018-10-02T17:59:32.819Z,11.80
2018-10-02T18:02:02.153Z,11.70
2018-10-02T18:04:31.323Z,11.60
2018-10-02T18:07:00.742Z,11.50
2018-10-02T18:09:29.913Z,11.50
2018-10-02T18:11:59.259Z,11.40
2018-10-02T18:14:28.530Z,11.40
2018-10-02T18:16:57.636Z,11.50
2018-10-02T18:19:27.624Z,11.60
2018-10-02T18:21:57.753Z,11.70
2018-10-02T18:24:27.755Z,11.80
2018-10-02T18:26:56.859Z,11.70
2018-10-02T18:29:25.904Z,11.70
2018-10-02T18:31:55.154Z,11.50
2018-10-02T18:34:24.212Z,11.40
2018-10-02T18:36:56.294Z,11.20
2018-10-02T18:39:25.521Z,11.10
2018-10-02T18:41:54.607Z,11.10
2018-10-02T18:44:23.761Z,11.00
2018-10-02T18:46:53.021Z,11.10
2018-10-02T18:49:22.207Z,11.00
2018-10-02T18:51:51.401Z,10.90
2018-10-02T18:54:20.603Z,11.00
2018-10-02T18:56:49.787Z,11.00
2018-10-02T18:59:19.458Z,11.10
2018-10-02T19:01:49.577Z,11.20
2018-10-02T19:04:18.846Z,11.20
2018-10-02T19:06:48.002Z,11.30
2018-10-02T19:09:18.872Z,11.30
2018-10-02T19:11:53.327Z,11.40
2018-10-02T19:14:23.852Z,11.40
2018-10-02T19:16:53.088Z,11.30
2018-10-02T19:19:28.074Z,11.30
2018-10-02T19:21:57.259Z,11.30
2018-10-02T19:24:26.449Z,11.40
2018-10-02T19:26:55.627Z,11.40
2018-10-02T19:29:31.757Z,11.50
2018-10-02T19:32:18.684Z,11.40
2018-10-02T19:34:47.938Z,11.40
2018-10-02T19:37:23.377Z,11.20
2018-10-02T19:39:52.638Z,10.80
2018-10-02T19:42:21.846Z,10.50
2018-10-02T19:44:51.179Z,10.40
2018-10-02T19:47:21.131Z,10.40
2018-10-02T19:49:50.276Z,10.40
2018-10-02T19:52:19.340Z,10.40
2018-10-02T19:54:48.880Z,10.40
2018-10-02T19:57:21.734Z,10.40
2018-10-02T19:59:51.651Z,10.30
2018-10-02T20:02:20.796Z,10.30
2018-10-02T20:04:49.827Z,10.20
2018-10-02T20:07:19.042Z,10.30
2018-10-02T20:09:48.225Z,10.20
2018-10-02T20:12:17.319Z,10.20
2018-10-02T20:14:46.375Z,10.30
2018-10-02T20:17:16.468Z,10.30
2018-10-02T20:19:45.747Z,10.30
2018-10-02T20:22:16.012Z,10.30
2018-10-02T20:24:45.155Z,10.30
2018-10-02T20:27:14.617Z,10.30
2018-10-02T20:29:44.132Z,10.30
2018-10-02T20:32:13.302Z,10.30
2018-10-02T20:34:42.441Z,10.20
2018-10-02T20:37:11.673Z,10.20
2018-10-02T20:39:40.856Z,10.10
2018-10-02T20:42:09.997Z,10.00
2018-10-02T20:44:39.343Z,10.10
2018-10-02T20:47:08.433Z,10.00
2018-10-02T20:49:38.339Z,10.00
2018-10-02T20:52:08.197Z,10.00
2018-10-02T20:54:37.343Z,10.00
2018-10-02T20:57:06.532Z,10.10
2018-10-02T20:59:35.727Z,10.10
2018-10-02T21:02:04.868Z,10.20
2018-10-02T21:04:33.947Z,10.20
2018-10-02T21:07:03.102Z,10.30
2018-10-02T21:09:32.360Z,10.30
2018-10-02T21:12:01.615Z,10.20
2018-10-02T21:14:30.933Z,10.10
2018-10-02T21:17:03.031Z,9.80
2018-10-02T21:19:32.131Z,9.50
2018-10-02T21:22:01.909Z,9.30
2018-10-02T21:24:31.127Z,9.30
2018-10-02T21:27:00.310Z,9.20
2018-10-02T21:29:29.540Z,9.20
2018-10-02T21:31:58.779Z,9.20
2018-10-02T21:34:27.859Z,9.30
2018-10-02T21:36:57.035Z,9.40
2018-10-02T21:39:27.033Z,9.40
2018-10-02T21:41:56.164Z,9.30
2018-10-02T21:44:25.454Z,9.30
2018-10-02T21:46:54.578Z,9.20
2018-10-02T21:49:23.745Z,9.20
2018-10-02T21:51:53.106Z,9.30
2018-10-02T21:54:23.479Z,9.40
2018-10-02T21:56:53.188Z,9.40
2018-10-02T21:59:22.390Z,9.60
2018-10-02T22:01:51.553Z,9.60
2018-10-02T22:04:20.768Z,9.70
2018-10-02T22:06:50.065Z,9.70
2018-10-02T22:09:19.231Z,9.70
2018-10-02T22:14:29.657Z,9.70
2018-10-02T22:16:58.779Z,9.70
2018-10-02T22:19:28.108Z,9.80
2018-10-02T22:21:57.331Z,9.80
2018-10-02T22:24:26.568Z,9.90
2018-10-02T22:26:56.414Z,9.90
2018-10-02T22:29:25.535Z,9.80
2018-10-02T22:31:55.060Z,9.50
2018-10-02T22:34:24.172Z,9.30
2018-10-02T22:36:53.246Z,9.20
2018-10-02T22:39:22.507Z,9.10
2018-10-02T22:41:52.468Z,9.10
2018-10-02T22:44:21.557Z,9.20
2018-10-02T22:46:50.830Z,9.20
2018-10-02T22:49:20.713Z,9.20
2018-10-02T22:51:49.867Z,9.10
2018-10-02T22:54:19.099Z,9.10
2018-10-02T22:56:48.235Z,9.20
2018-10-02T22:59:17.427Z,9.20
2018-10-02T23:01:46.799Z,9.30
2018-10-02T23:04:15.876Z,9.50
2018-10-02T23:06:46.624Z,9.60
2018-10-02T23:09:15.824Z,9.60
2018-10-02T23:11:44.813Z,9.60
2018-10-02T23:14:13.909Z,9.50
2018-10-02T23:16:43.133Z,9.50
2018-10-02T23:19:12.325Z,9.50
2018-10-02T23:21:41.992Z,9.60
2018-10-02T23:24:11.412Z,9.60
2018-10-02T23:26:40.613Z,9.60
2018-10-02T23:29:09.676Z,9.50
2018-10-02T23:31:38.866Z,9.50
2018-10-02T23:34:08.113Z,9.60
2018-10-02T23:36:37.299Z,9.60
2018-10-02T23:39:07.823Z,9.50
2018-10-02T23:41:37.174Z,9.40
2018-10-02T23:44:06.448Z,9.50
2018-10-02T23:46:35.527Z,9.50
2018-10-02T23:49:04.761Z,9.50
2018-10-02T23:51:33.959Z,9.60
2018-10-02T23:54:03.067Z,9.60
2018-10-02T23:56:32.343Z,9.60
2018-10-02T23:59:01.520Z,9.60
